sensor_id;sensor_type;location;lat;lon;timestamp;P1;durP1;ratioP1;P2;durP2;ratioP2
49488;SDS011;35382;51.484;11.476;2022-07-29T00:01:36;8.40;;;4.93;;
49488;SDS011;35382;51.484;11.476;2022-07-29T00:03:17;8.25;;;4.65;;
49488;SDS011;35382;51.484;11.476;2022-07-29T00:04:58;8.07;;;4.75;;
49488;SDS011;35382;51.484;11.476;2022-07-29T00:06:39;5.85;;;5.13;;
49488;SDS011;35382;51.484;11.476;2022-07-29T00:08:20;8.60;;;5.95;;
49488;SDS011;35382;51.484;11.476;2022-07-29T00:10:01;8.45;;;5.22;;
49488;SDS011;35382;51.484;11.476;2022-07-29T00:11:44;8.70;;;5.32;;
49488;SDS011;35382;51.484;11.476;2022-07-29T00:13:25;10.57;;;4.82;;
49488;SDS011;35382;51.484;11.476;2022-07-29T00:15:06;7.68;;;4.90;;
49488;SDS011;35382;51.484;11.476;2022-07-29T00:16:47;9.00;;;5.00;;
49488;SDS011;35382;51.484;11.476;2022-07-29T00:18:28;6.82;;;4.95;;
49488;SDS011;35382;51.484;11.476;2022-07-29T00:20:09;5.68;;;5.05;;
49488;SDS011;35382;51.484;11.476;2022-07-29T00:21:50;6.05;;;4.78;;
49488;SDS011;35382;51.484;11.476;2022-07-29T00:23:31;9.00;;;4.95;;
49488;SDS011;35382;51.484;11.476;2022-07-29T00:25:12;5.82;;;4.75;;
49488;SDS011;35382;51.484;11.476;2022-07-29T00:26:53;6.80;;;5.00;;
49488;SDS011;35382;51.484;11.476;2022-07-29T00:28:35;7.18;;;5.05;;
49488;SDS011;35382;51.484;11.476;2022-07-29T00:30:16;6.90;;;5.15;;
49488;SDS011;35382;51.484;11.476;2022-07-29T00:31:57;7.63;;;5.20;;
49488;SDS011;35382;51.484;11.476;2022-07-29T00:33:38;7.78;;;5.45;;
49488;SDS011;35382;51.484;11.476;2022-07-29T00:35:19;5.32;;;4.68;;
49488;SDS011;35382;51.484;11.476;2022-07-29T00:37:18;7.22;;;4.85;;
49488;SDS011;35382;51.484;11.476;2022-07-29T00:38:59;8.00;;;4.93;;
49488;SDS011;35382;51.484;11.476;2022-07-29T00:40:40;8.70;;;4.80;;
49488;SDS011;35382;51.484;11.476;2022-07-29T00:42:22;5.18;;;4.70;;
49488;SDS011;35382;51.484;11.476;2022-07-29T00:44:03;8.10;;;4.65;;
49488;SDS011;35382;51.484;11.476;2022-07-29T00:45:44;6.80;;;4.90;;
49488;SDS011;35382;51.484;11.476;2022-07-29T00:47:25;6.60;;;5.75;;
49488;SDS011;35382;51.484;11.476;2022-07-29T00:49:06;9.15;;;5.82;;
49488;SDS011;35382;51.484;11.476;2022-07-29T00:50:48;6.25;;;5.05;;
49488;SDS011;35382;51.484;11.476;2022-07-29T00:52:30;6.25;;;5.32;;
49488;SDS011;35382;51.484;11.476;2022-07-29T00:54:12;7.40;;;5.55;;
49488;SDS011;35382;51.484;11.476;2022-07-29T00:55:54;10.20;;;6.03;;
49488;SDS011;35382;51.484;11.476;2022-07-29T00:57:36;7.65;;;5.57;;
49488;SDS011;35382;51.484;11.476;2022-07-29T00:59:17;6.03;;;5.43;;
49488;SDS011;35382;51.484;11.476;2022-07-29T01:00:58;9.55;;;5.68;;
49488;SDS011;35382;51.484;11.476;2022-07-29T01:02:39;6.80;;;5.60;;
49488;SDS011;35382;51.484;11.476;2022-07-29T01:04:20;10.02;;;6.43;;
49488;SDS011;35382;51.484;11.476;2022-07-29T01:06:02;8.35;;;5.38;;
49488;SDS011;35382;51.484;11.476;2022-07-29T01:07:43;6.88;;;5.20;;
49488;SDS011;35382;51.484;11.476;2022-07-29T01:09:26;6.40;;;5.25;;
49488;SDS011;35382;51.484;11.476;2022-07-29T01:11:07;8.18;;;5.53;;
49488;SDS011;35382;51.484;11.476;2022-07-29T01:12:49;6.65;;;5.43;;
49488;SDS011;35382;51.484;11.476;2022-07-29T01:14:31;6.43;;;5.53;;
49488;SDS011;35382;51.484;11.476;2022-07-29T01:16:13;5.97;;;5.28;;
49488;SDS011;35382;51.484;11.476;2022-07-29T01:18:03;6.28;;;5.57;;
49488;SDS011;35382;51.484;11.476;2022-07-29T01:21:51;5.43;;;4.93;;
49488;SDS011;35382;51.484;11.476;2022-07-29T01:29:21;6.68;;;5.10;;
49488;SDS011;35382;51.484;11.476;2022-07-29T01:31:09;8.80;;;5.35;;
49488;SDS011;35382;51.484;11.476;2022-07-29T01:32:54;8.80;;;5.15;;
49488;SDS011;35382;51.484;11.476;2022-07-29T01:34:41;7.40;;;6.05;;
49488;SDS011;35382;51.484;11.476;2022-07-29T01:36:32;7.47;;;5.35;;
49488;SDS011;35382;51.484;11.476;2022-07-29T01:38:21;6.40;;;5.80;;
49488;SDS011;35382;51.484;11.476;2022-07-29T01:40:07;7.80;;;5.40;;
49488;SDS011;35382;51.484;11.476;2022-07-29T01:42:02;7.00;;;5.60;;
49488;SDS011;35382;51.484;11.476;2022-07-29T01:43:56;11.20;;;6.30;;
49488;SDS011;35382;51.484;11.476;2022-07-29T01:48:02;7.70;;;5.90;;
49488;SDS011;35382;51.484;11.476;2022-07-29T01:49:47;9.80;;;6.18;;
49488;SDS011;35382;51.484;11.476;2022-07-29T01:51:32;7.15;;;6.45;;
49488;SDS011;35382;51.484;11.476;2022-07-29T01:53:21;7.85;;;6.65;;
49488;SDS011;35382;51.484;11.476;2022-07-29T01:55:11;6.97;;;6.28;;
49488;SDS011;35382;51.484;11.476;2022-07-29T01:56:55;10.10;;;6.50;;
49488;SDS011;35382;51.484;11.476;2022-07-29T01:58:39;7.72;;;6.90;;
49488;SDS011;35382;51.484;11.476;2022-07-29T02:00:21;8.35;;;6.43;;
49488;SDS011;35382;51.484;11.476;2022-07-29T02:02:04;7.22;;;6.15;;
49488;SDS011;35382;51.484;11.476;2022-07-29T02:03:49;7.07;;;6.38;;
49488;SDS011;35382;51.484;11.476;2022-07-29T02:05:31;7.05;;;6.40;;
49488;SDS011;35382;51.484;11.476;2022-07-29T02:07:15;7.75;;;6.95;;
49488;SDS011;35382;51.484;11.476;2022-07-29T02:08:59;9.20;;;6.20;;
49488;SDS011;35382;51.484;11.476;2022-07-29T02:10:42;7.18;;;6.38;;
49488;SDS011;35382;51.484;11.476;2022-07-29T02:12:26;7.45;;;6.75;;
49488;SDS011;35382;51.484;11.476;2022-07-29T02:14:09;6.90;;;6.30;;
49488;SDS011;35382;51.484;11.476;2022-07-29T02:15:53;8.25;;;6.78;;
49488;SDS011;35382;51.484;11.476;2022-07-29T02:17:41;7.30;;;6.60;;
49488;SDS011;35382;51.484;11.476;2022-07-29T02:19:29;7.47;;;6.65;;
49488;SDS011;35382;51.484;11.476;2022-07-29T02:21:12;8.02;;;6.40;;
49488;SDS011;35382;51.484;11.476;2022-07-29T02:22:59;7.18;;;6.57;;
49488;SDS011;35382;51.484;11.476;2022-07-29T02:24:41;7.97;;;7.22;;
49488;SDS011;35382;51.484;11.476;2022-07-29T02:26:24;9.05;;;8.10;;
49488;SDS011;35382;51.484;11.476;2022-07-29T02:28:07;8.63;;;6.82;;
49488;SDS011;35382;51.484;11.476;2022-07-29T02:29:48;8.65;;;7.85;;
49488;SDS011;35382;51.484;11.476;2022-07-29T02:31:31;9.00;;;7.55;;
49488;SDS011;35382;51.484;11.476;2022-07-29T02:33:15;7.68;;;6.85;;
49488;SDS011;35382;51.484;11.476;2022-07-29T02:34:57;7.93;;;7.18;;
49488;SDS011;35382;51.484;11.476;2022-07-29T02:36:40;8.82;;;7.45;;
49488;SDS011;35382;51.484;11.476;2022-07-29T02:38:23;8.02;;;7.30;;
49488;SDS011;35382;51.484;11.476;2022-07-29T02:40:24;9.50;;;7.13;;
49488;SDS011;35382;51.484;11.476;2022-07-29T02:42:06;8.73;;;7.13;;
49488;SDS011;35382;51.484;11.476;2022-07-29T02:43:52;7.72;;;6.95;;
49488;SDS011;35382;51.484;11.476;2022-07-29T02:45:36;8.52;;;6.68;;
49488;SDS011;35382;51.484;11.476;2022-07-29T02:47:36;8.10;;;7.05;;
49488;SDS011;35382;51.484;11.476;2022-07-29T02:49:31;7.05;;;6.35;;
49488;SDS011;35382;51.484;11.476;2022-07-29T02:53:07;9.65;;;6.32;;
49488;SDS011;35382;51.484;11.476;2022-07-29T02:55:00;6.53;;;6.03;;
49488;SDS011;35382;51.484;11.476;2022-07-29T02:59:24;7.68;;;6.82;;
49488;SDS011;35382;51.484;11.476;2022-07-29T03:01:10;8.57;;;7.28;;
49488;SDS011;35382;51.484;11.476;2022-07-29T03:02:54;8.80;;;7.95;;
49488;SDS011;35382;51.484;11.476;2022-07-29T03:04:39;8.57;;;7.88;;
49488;SDS011;35382;51.484;11.476;2022-07-29T03:06:23;9.40;;;7.72;;
49488;SDS011;35382;51.484;11.476;2022-07-29T03:08:06;8.95;;;7.75;;
49488;SDS011;35382;51.484;11.476;2022-07-29T03:09:50;8.45;;;7.63;;
49488;SDS011;35382;51.484;11.476;2022-07-29T03:11:32;9.20;;;8.00;;
49488;SDS011;35382;51.484;11.476;2022-07-29T03:13:14;9.00;;;8.30;;
49488;SDS011;35382;51.484;11.476;2022-07-29T03:14:56;8.80;;;8.05;;
49488;SDS011;35382;51.484;11.476;2022-07-29T03:16:39;8.45;;;7.65;;
49488;SDS011;35382;51.484;11.476;2022-07-29T03:18:21;10.75;;;8.50;;
49488;SDS011;35382;51.484;11.476;2022-07-29T03:20:02;9.55;;;8.57;;
49488;SDS011;35382;51.484;11.476;2022-07-29T03:21:44;9.35;;;8.55;;
49488;SDS011;35382;51.484;11.476;2022-07-29T03:23:24;9.35;;;8.55;;
49488;SDS011;35382;51.484;11.476;2022-07-29T03:25:08;9.65;;;8.68;;
49488;SDS011;35382;51.484;11.476;2022-07-29T03:26:54;9.85;;;9.13;;
49488;SDS011;35382;51.484;11.476;2022-07-29T03:28:35;9.90;;;8.98;;
49488;SDS011;35382;51.484;11.476;2022-07-29T03:30:16;9.25;;;8.55;;
49488;SDS011;35382;51.484;11.476;2022-07-29T03:31:57;9.52;;;8.57;;
49488;SDS011;35382;51.484;11.476;2022-07-29T03:33:38;10.30;;;9.23;;
49488;SDS011;35382;51.484;11.476;2022-07-29T03:35:19;11.10;;;8.82;;
49488;SDS011;35382;51.484;11.476;2022-07-29T03:37:00;9.35;;;8.45;;
49488;SDS011;35382;51.484;11.476;2022-07-29T03:38:42;9.43;;;8.63;;
49488;SDS011;35382;51.484;11.476;2022-07-29T03:40:30;10.32;;;9.25;;
49488;SDS011;35382;51.484;11.476;2022-07-29T03:42:15;9.88;;;8.98;;
49488;SDS011;35382;51.484;11.476;2022-07-29T03:43:59;10.43;;;9.48;;
49488;SDS011;35382;51.484;11.476;2022-07-29T03:45:42;9.95;;;9.15;;
49488;SDS011;35382;51.484;11.476;2022-07-29T03:47:27;9.23;;;8.52;;
49488;SDS011;35382;51.484;11.476;2022-07-29T03:49:10;9.50;;;8.70;;
49488;SDS011;35382;51.484;11.476;2022-07-29T03:50:52;10.55;;;9.48;;
49488;SDS011;35382;51.484;11.476;2022-07-29T03:52:33;9.70;;;8.90;;
49488;SDS011;35382;51.484;11.476;2022-07-29T03:54:14;10.52;;;9.57;;
49488;SDS011;35382;51.484;11.476;2022-07-29T03:55:58;10.07;;;9.07;;
49488;SDS011;35382;51.484;11.476;2022-07-29T03:57:40;10.02;;;9.10;;
49488;SDS011;35382;51.484;11.476;2022-07-29T03:59:22;9.55;;;8.60;;
49488;SDS011;35382;51.484;11.476;2022-07-29T04:01:03;10.73;;;8.88;;
49488;SDS011;35382;51.484;11.476;2022-07-29T04:02:44;10.02;;;9.18;;
49488;SDS011;35382;51.484;11.476;2022-07-29T04:04:28;10.00;;;9.20;;
49488;SDS011;35382;51.484;11.476;2022-07-29T04:06:12;10.15;;;9.18;;
49488;SDS011;35382;51.484;11.476;2022-07-29T04:07:53;10.52;;;9.20;;
49488;SDS011;35382;51.484;11.476;2022-07-29T04:09:34;10.02;;;8.93;;
49488;SDS011;35382;51.484;11.476;2022-07-29T04:11:15;10.57;;;9.02;;
49488;SDS011;35382;51.484;11.476;2022-07-29T04:12:56;12.35;;;9.40;;
49488;SDS011;35382;51.484;11.476;2022-07-29T04:14:37;9.70;;;8.90;;
49488;SDS011;35382;51.484;11.476;2022-07-29T04:16:18;10.15;;;9.20;;
49488;SDS011;35382;51.484;11.476;2022-07-29T04:17:59;10.23;;;9.35;;
49488;SDS011;35382;51.484;11.476;2022-07-29T04:19:40;10.20;;;9.32;;
49488;SDS011;35382;51.484;11.476;2022-07-29T04:21:20;9.90;;;9.20;;
49488;SDS011;35382;51.484;11.476;2022-07-29T04:23:01;10.57;;;9.50;;
49488;SDS011;35382;51.484;11.476;2022-07-29T04:24:42;9.90;;;9.00;;
49488;SDS011;35382;51.484;11.476;2022-07-29T04:26:23;12.20;;;9.70;;
49488;SDS011;35382;51.484;11.476;2022-07-29T04:28:05;10.30;;;9.18;;
49488;SDS011;35382;51.484;11.476;2022-07-29T04:29:46;10.32;;;9.32;;
49488;SDS011;35382;51.484;11.476;2022-07-29T04:31:27;10.45;;;9.35;;
49488;SDS011;35382;51.484;11.476;2022-07-29T04:33:08;11.80;;;9.85;;
49488;SDS011;35382;51.484;11.476;2022-07-29T04:34:49;10.77;;;9.75;;
49488;SDS011;35382;51.484;11.476;2022-07-29T04:36:30;11.07;;;10.18;;
49488;SDS011;35382;51.484;11.476;2022-07-29T04:38:11;13.90;;;10.48;;
49488;SDS011;35382;51.484;11.476;2022-07-29T04:39:52;11.02;;;10.20;;
49488;SDS011;35382;51.484;11.476;2022-07-29T04:41:33;10.85;;;9.95;;
49488;SDS011;35382;51.484;11.476;2022-07-29T04:43:14;12.13;;;10.95;;
49488;SDS011;35382;51.484;11.476;2022-07-29T04:44:56;10.85;;;9.63;;
49488;SDS011;35382;51.484;11.476;2022-07-29T04:46:37;11.70;;;10.55;;
49488;SDS011;35382;51.484;11.476;2022-07-29T04:48:18;11.90;;;10.98;;
49488;SDS011;35382;51.484;11.476;2022-07-29T04:49:58;10.65;;;9.88;;
49488;SDS011;35382;51.484;11.476;2022-07-29T04:51:39;11.02;;;9.95;;
49488;SDS011;35382;51.484;11.476;2022-07-29T04:53:20;12.95;;;11.07;;
49488;SDS011;35382;51.484;11.476;2022-07-29T04:55:02;11.60;;;10.65;;
49488;SDS011;35382;51.484;11.476;2022-07-29T04:56:44;11.02;;;10.23;;
49488;SDS011;35382;51.484;11.476;2022-07-29T04:58:26;11.10;;;10.25;;
49488;SDS011;35382;51.484;11.476;2022-07-29T05:00:07;11.25;;;10.32;;
49488;SDS011;35382;51.484;11.476;2022-07-29T05:01:49;11.07;;;10.20;;
49488;SDS011;35382;51.484;11.476;2022-07-29T05:03:30;11.40;;;10.50;;
49488;SDS011;35382;51.484;11.476;2022-07-29T05:05:11;12.18;;;11.18;;
49488;SDS011;35382;51.484;11.476;2022-07-29T05:06:52;10.73;;;9.90;;
49488;SDS011;35382;51.484;11.476;2022-07-29T05:08:33;12.40;;;11.45;;
49488;SDS011;35382;51.484;11.476;2022-07-29T05:10:13;12.25;;;11.35;;
49488;SDS011;35382;51.484;11.476;2022-07-29T05:11:54;11.77;;;10.98;;
49488;SDS011;35382;51.484;11.476;2022-07-29T05:13:35;11.98;;;10.98;;
49488;SDS011;35382;51.484;11.476;2022-07-29T05:15:16;12.27;;;11.38;;
49488;SDS011;35382;51.484;11.476;2022-07-29T05:16:58;12.80;;;11.85;;
49488;SDS011;35382;51.484;11.476;2022-07-29T05:18:39;11.82;;;10.88;;
49488;SDS011;35382;51.484;11.476;2022-07-29T05:20:20;13.15;;;11.93;;
49488;SDS011;35382;51.484;11.476;2022-07-29T05:22:06;12.45;;;11.63;;
49488;SDS011;35382;51.484;11.476;2022-07-29T05:23:47;10.90;;;10.00;;
49488;SDS011;35382;51.484;11.476;2022-07-29T05:25:28;12.90;;;11.70;;
49488;SDS011;35382;51.484;11.476;2022-07-29T05:27:09;13.73;;;12.57;;
49488;SDS011;35382;51.484;11.476;2022-07-29T05:28:50;13.75;;;12.75;;
49488;SDS011;35382;51.484;11.476;2022-07-29T05:30:31;12.27;;;11.38;;
49488;SDS011;35382;51.484;11.476;2022-07-29T05:32:12;12.30;;;10.77;;
49488;SDS011;35382;51.484;11.476;2022-07-29T05:33:53;13.13;;;12.13;;
49488;SDS011;35382;51.484;11.476;2022-07-29T05:35:34;11.32;;;10.45;;
49488;SDS011;35382;51.484;11.476;2022-07-29T05:37:18;13.30;;;12.00;;
49488;SDS011;35382;51.484;11.476;2022-07-29T05:39:00;12.52;;;11.55;;
49488;SDS011;35382;51.484;11.476;2022-07-29T05:40:41;11.40;;;10.48;;
49488;SDS011;35382;51.484;11.476;2022-07-29T05:42:22;13.13;;;11.98;;
49488;SDS011;35382;51.484;11.476;2022-07-29T05:44:03;12.35;;;11.45;;
49488;SDS011;35382;51.484;11.476;2022-07-29T05:45:44;11.80;;;10.88;;
49488;SDS011;35382;51.484;11.476;2022-07-29T05:47:25;11.38;;;10.32;;
49488;SDS011;35382;51.484;11.476;2022-07-29T05:49:06;11.65;;;10.68;;
49488;SDS011;35382;51.484;11.476;2022-07-29T05:50:47;12.63;;;11.50;;
49488;SDS011;35382;51.484;11.476;2022-07-29T05:52:28;13.50;;;12.43;;
49488;SDS011;35382;51.484;11.476;2022-07-29T05:54:09;13.50;;;12.55;;
49488;SDS011;35382;51.484;11.476;2022-07-29T05:55:51;13.55;;;12.48;;
49488;SDS011;35382;51.484;11.476;2022-07-29T05:57:32;13.57;;;12.57;;
49488;SDS011;35382;51.484;11.476;2022-07-29T05:59:13;11.52;;;10.63;;
49488;SDS011;35382;51.484;11.476;2022-07-29T06:00:54;12.15;;;11.15;;
49488;SDS011;35382;51.484;11.476;2022-07-29T06:02:39;12.98;;;11.98;;
49488;SDS011;35382;51.484;11.476;2022-07-29T06:04:20;12.10;;;11.05;;
49488;SDS011;35382;51.484;11.476;2022-07-29T06:06:01;12.38;;;11.32;;
49488;SDS011;35382;51.484;11.476;2022-07-29T06:07:42;11.10;;;9.88;;
49488;SDS011;35382;51.484;11.476;2022-07-29T06:09:23;10.55;;;9.55;;
49488;SDS011;35382;51.484;11.476;2022-07-29T06:11:04;11.93;;;10.57;;
49488;SDS011;35382;51.484;11.476;2022-07-29T06:12:45;8.98;;;7.65;;
49488;SDS011;35382;51.484;11.476;2022-07-29T06:14:26;10.95;;;8.18;;
49488;SDS011;35382;51.484;11.476;2022-07-29T06:16:08;10.00;;;8.98;;
49488;SDS011;35382;51.484;11.476;2022-07-29T06:17:49;8.68;;;7.40;;
49488;SDS011;35382;51.484;11.476;2022-07-29T06:19:30;8.93;;;8.02;;
49488;SDS011;35382;51.484;11.476;2022-07-29T06:21:11;9.55;;;8.63;;
49488;SDS011;35382;51.484;11.476;2022-07-29T06:22:52;8.73;;;7.82;;
49488;SDS011;35382;51.484;11.476;2022-07-29T06:24:33;9.18;;;8.07;;
49488;SDS011;35382;51.484;11.476;2022-07-29T06:26:14;9.00;;;8.25;;
49488;SDS011;35382;51.484;11.476;2022-07-29T06:27:55;9.30;;;8.63;;
49488;SDS011;35382;51.484;11.476;2022-07-29T06:29:36;9.80;;;8.88;;
49488;SDS011;35382;51.484;11.476;2022-07-29T06:31:17;10.43;;;7.93;;
49488;SDS011;35382;51.484;11.476;2022-07-29T06:32:57;9.15;;;7.95;;
49488;SDS011;35382;51.484;11.476;2022-07-29T06:34:38;14.52;;;8.00;;
49488;SDS011;35382;51.484;11.476;2022-07-29T06:36:19;9.35;;;8.40;;
49488;SDS011;35382;51.484;11.476;2022-07-29T06:38:01;10.65;;;8.50;;
49488;SDS011;35382;51.484;11.476;2022-07-29T06:39:43;8.70;;;8.00;;
49488;SDS011;35382;51.484;11.476;2022-07-29T06:41:24;9.35;;;8.05;;
49488;SDS011;35382;51.484;11.476;2022-07-29T06:43:06;11.50;;;7.82;;
49488;SDS011;35382;51.484;11.476;2022-07-29T06:44:47;9.52;;;8.60;;
49488;SDS011;35382;51.484;11.476;2022-07-29T06:46:28;11.10;;;8.07;;
49488;SDS011;35382;51.484;11.476;2022-07-29T06:48:09;9.55;;;7.50;;
49488;SDS011;35382;51.484;11.476;2022-07-29T06:49:50;8.63;;;7.22;;
49488;SDS011;35382;51.484;11.476;2022-07-29T06:51:31;8.80;;;7.93;;
49488;SDS011;35382;51.484;11.476;2022-07-29T06:53:12;8.23;;;7.50;;
49488;SDS011;35382;51.484;11.476;2022-07-29T06:54:53;8.95;;;7.95;;
49488;SDS011;35382;51.484;11.476;2022-07-29T06:56:35;9.32;;;8.48;;
49488;SDS011;35382;51.484;11.476;2022-07-29T06:58:17;8.38;;;7.57;;
49488;SDS011;35382;51.484;11.476;2022-07-29T07:00:09;8.40;;;7.63;;
49488;SDS011;35382;51.484;11.476;2022-07-29T07:01:50;8.50;;;7.72;;
49488;SDS011;35382;51.484;11.476;2022-07-29T07:03:31;8.73;;;7.75;;
49488;SDS011;35382;51.484;11.476;2022-07-29T07:05:13;8.80;;;8.00;;
49488;SDS011;35382;51.484;11.476;2022-07-29T07:06:53;8.93;;;8.18;;
49488;SDS011;35382;51.484;11.476;2022-07-29T07:08:36;8.73;;;7.93;;
49488;SDS011;35382;51.484;11.476;2022-07-29T07:10:16;10.90;;;7.97;;
49488;SDS011;35382;51.484;11.476;2022-07-29T07:11:57;12.07;;;8.20;;
49488;SDS011;35382;51.484;11.476;2022-07-29T07:13:39;8.43;;;7.63;;
49488;SDS011;35382;51.484;11.476;2022-07-29T07:15:20;8.80;;;7.90;;
49488;SDS011;35382;51.484;11.476;2022-07-29T07:17:04;10.05;;;7.90;;
49488;SDS011;35382;51.484;11.476;2022-07-29T07:18:44;10.40;;;8.45;;
49488;SDS011;35382;51.484;11.476;2022-07-29T07:20:26;11.48;;;9.15;;
49488;SDS011;35382;51.484;11.476;2022-07-29T07:22:06;8.85;;;7.90;;
49488;SDS011;35382;51.484;11.476;2022-07-29T07:23:47;9.90;;;7.90;;
49488;SDS011;35382;51.484;11.476;2022-07-29T07:25:28;9.20;;;8.02;;
49488;SDS011;35382;51.484;11.476;2022-07-29T07:27:09;8.40;;;7.60;;
49488;SDS011;35382;51.484;11.476;2022-07-29T07:28:50;9.07;;;8.18;;
49488;SDS011;35382;51.484;11.476;2022-07-29T07:30:31;8.38;;;6.85;;
49488;SDS011;35382;51.484;11.476;2022-07-29T07:32:12;8.73;;;7.82;;
49488;SDS011;35382;51.484;11.476;2022-07-29T07:33:59;7.90;;;7.20;;
49488;SDS011;35382;51.484;11.476;2022-07-29T07:35:41;8.63;;;7.70;;
49488;SDS011;35382;51.484;11.476;2022-07-29T07:37:22;8.57;;;7.68;;
49488;SDS011;35382;51.484;11.476;2022-07-29T07:39:05;8.73;;;7.57;;
49488;SDS011;35382;51.484;11.476;2022-07-29T07:40:45;9.63;;;6.65;;
49488;SDS011;35382;51.484;11.476;2022-07-29T07:42:27;7.22;;;6.05;;
49488;SDS011;35382;51.484;11.476;2022-07-29T07:44:08;9.75;;;5.60;;
49488;SDS011;35382;51.484;11.476;2022-07-29T07:45:49;7.35;;;5.60;;
49488;SDS011;35382;51.484;11.476;2022-07-29T07:47:30;10.15;;;5.15;;
49488;SDS011;35382;51.484;11.476;2022-07-29T07:49:10;8.52;;;6.22;;
49488;SDS011;35382;51.484;11.476;2022-07-29T07:50:51;10.95;;;5.13;;
49488;SDS011;35382;51.484;11.476;2022-07-29T07:52:32;9.30;;;5.65;;
49488;SDS011;35382;51.484;11.476;2022-07-29T07:54:13;8.30;;;6.00;;
49488;SDS011;35382;51.484;11.476;2022-07-29T07:55:54;7.80;;;5.38;;
49488;SDS011;35382;51.484;11.476;2022-07-29T07:57:35;9.82;;;4.97;;
49488;SDS011;35382;51.484;11.476;2022-07-29T07:59:16;7.93;;;5.30;;
49488;SDS011;35382;51.484;11.476;2022-07-29T08:00:57;7.82;;;4.95;;
49488;SDS011;35382;51.484;11.476;2022-07-29T08:02:38;8.55;;;5.75;;
49488;SDS011;35382;51.484;11.476;2022-07-29T08:04:20;7.28;;;4.68;;
49488;SDS011;35382;51.484;11.476;2022-07-29T08:06:01;11.60;;;4.70;;
49488;SDS011;35382;51.484;11.476;2022-07-29T08:07:43;6.82;;;5.20;;
49488;SDS011;35382;51.484;11.476;2022-07-29T08:09:26;7.28;;;4.50;;
49488;SDS011;35382;51.484;11.476;2022-07-29T08:11:08;6.57;;;5.00;;
49488;SDS011;35382;51.484;11.476;2022-07-29T08:12:49;8.27;;;5.18;;
49488;SDS011;35382;51.484;11.476;2022-07-29T08:14:30;8.00;;;5.45;;
49488;SDS011;35382;51.484;11.476;2022-07-29T08:16:11;10.23;;;6.55;;
49488;SDS011;35382;51.484;11.476;2022-07-29T08:17:52;8.15;;;5.82;;
49488;SDS011;35382;51.484;11.476;2022-07-29T08:19:33;10.07;;;5.68;;
49488;SDS011;35382;51.484;11.476;2022-07-29T08:21:14;8.52;;;5.97;;
49488;SDS011;35382;51.484;11.476;2022-07-29T08:22:56;10.38;;;6.45;;
49488;SDS011;35382;51.484;11.476;2022-07-29T08:24:37;7.32;;;6.18;;
49488;SDS011;35382;51.484;11.476;2022-07-29T08:26:23;9.50;;;6.45;;
49488;SDS011;35382;51.484;11.476;2022-07-29T08:28:04;11.13;;;6.60;;
49488;SDS011;35382;51.484;11.476;2022-07-29T08:29:46;8.38;;;6.38;;
49488;SDS011;35382;51.484;11.476;2022-07-29T08:31:27;8.60;;;5.90;;
49488;SDS011;35382;51.484;11.476;2022-07-29T08:33:08;8.18;;;6.15;;
49488;SDS011;35382;51.484;11.476;2022-07-29T08:34:49;12.98;;;6.85;;
49488;SDS011;35382;51.484;11.476;2022-07-29T08:36:30;8.18;;;6.55;;
49488;SDS011;35382;51.484;11.476;2022-07-29T08:38:12;11.57;;;6.07;;
49488;SDS011;35382;51.484;11.476;2022-07-29T08:39:52;9.57;;;6.40;;
49488;SDS011;35382;51.484;11.476;2022-07-29T08:41:33;6.75;;;5.82;;
49488;SDS011;35382;51.484;11.476;2022-07-29T08:43:15;7.30;;;5.93;;
49488;SDS011;35382;51.484;11.476;2022-07-29T08:44:56;9.55;;;6.05;;
49488;SDS011;35382;51.484;11.476;2022-07-29T08:46:38;9.43;;;6.63;;
49488;SDS011;35382;51.484;11.476;2022-07-29T08:48:22;8.95;;;5.93;;
49488;SDS011;35382;51.484;11.476;2022-07-29T08:50:04;8.40;;;6.10;;
49488;SDS011;35382;51.484;11.476;2022-07-29T08:51:45;8.38;;;6.28;;
49488;SDS011;35382;51.484;11.476;2022-07-29T08:53:26;11.95;;;6.72;;
49488;SDS011;35382;51.484;11.476;2022-07-29T08:55:09;9.85;;;6.55;;
49488;SDS011;35382;51.484;11.476;2022-07-29T08:56:50;9.98;;;7.15;;
49488;SDS011;35382;51.484;11.476;2022-07-29T08:58:32;10.10;;;6.90;;
49488;SDS011;35382;51.484;11.476;2022-07-29T09:00:17;9.52;;;7.40;;
49488;SDS011;35382;51.484;11.476;2022-07-29T09:01:58;12.43;;;6.90;;
49488;SDS011;35382;51.484;11.476;2022-07-29T09:03:40;10.65;;;7.00;;
49488;SDS011;35382;51.484;11.476;2022-07-29T09:05:23;8.68;;;6.35;;
49488;SDS011;35382;51.484;11.476;2022-07-29T09:07:06;9.85;;;6.60;;
49488;SDS011;35382;51.484;11.476;2022-07-29T09:08:48;13.07;;;7.40;;
49488;SDS011;35382;51.484;11.476;2022-07-29T09:10:29;10.63;;;7.20;;
49488;SDS011;35382;51.484;11.476;2022-07-29T09:12:10;13.18;;;7.43;;
49488;SDS011;35382;51.484;11.476;2022-07-29T09:13:52;11.88;;;7.00;;
49488;SDS011;35382;51.484;11.476;2022-07-29T09:15:33;11.90;;;7.20;;
49488;SDS011;35382;51.484;11.476;2022-07-29T09:17:14;9.75;;;6.80;;
49488;SDS011;35382;51.484;11.476;2022-07-29T09:18:57;9.43;;;6.82;;
49488;SDS011;35382;51.484;11.476;2022-07-29T09:20:38;11.18;;;7.07;;
49488;SDS011;35382;51.484;11.476;2022-07-29T09:22:40;11.10;;;7.13;;
49488;SDS011;35382;51.484;11.476;2022-07-29T09:24:21;8.52;;;6.90;;
49488;SDS011;35382;51.484;11.476;2022-07-29T09:26:04;9.75;;;7.43;;
49488;SDS011;35382;51.484;11.476;2022-07-29T09:27:49;9.30;;;6.78;;
49488;SDS011;35382;51.484;11.476;2022-07-29T09:29:30;10.20;;;5.85;;
49488;SDS011;35382;51.484;11.476;2022-07-29T09:31:12;10.02;;;6.70;;
49488;SDS011;35382;51.484;11.476;2022-07-29T09:33:00;10.13;;;6.22;;
49488;SDS011;35382;51.484;11.476;2022-07-29T09:34:43;8.85;;;6.55;;
49488;SDS011;35382;51.484;11.476;2022-07-29T09:36:24;9.25;;;6.40;;
49488;SDS011;35382;51.484;11.476;2022-07-29T09:38:11;9.45;;;6.40;;
49488;SDS011;35382;51.484;11.476;2022-07-29T09:39:53;10.10;;;6.57;;
49488;SDS011;35382;51.484;11.476;2022-07-29T09:41:47;7.75;;;6.53;;
49488;SDS011;35382;51.484;11.476;2022-07-29T09:43:30;7.95;;;6.72;;
49488;SDS011;35382;51.484;11.476;2022-07-29T09:45:11;9.27;;;6.28;;
49488;SDS011;35382;51.484;11.476;2022-07-29T09:49:05;9.32;;;6.35;;
49488;SDS011;35382;51.484;11.476;2022-07-29T09:50:49;11.07;;;6.35;;
49488;SDS011;35382;51.484;11.476;2022-07-29T09:52:31;12.10;;;7.20;;
49488;SDS011;35382;51.484;11.476;2022-07-29T09:54:21;15.05;;;7.03;;
49488;SDS011;35382;51.484;11.476;2022-07-29T09:56:06;10.05;;;6.78;;
49488;SDS011;35382;51.484;11.476;2022-07-29T09:57:47;12.25;;;7.75;;
49488;SDS011;35382;51.484;11.476;2022-07-29T09:59:28;10.18;;;7.00;;
49488;SDS011;35382;51.484;11.476;2022-07-29T10:01:09;11.57;;;7.22;;
49488;SDS011;35382;51.484;11.476;2022-07-29T10:02:50;8.82;;;7.07;;
49488;SDS011;35382;51.484;11.476;2022-07-29T10:04:38;7.75;;;6.97;;
49488;SDS011;35382;51.484;11.476;2022-07-29T10:06:19;10.13;;;8.18;;
49488;SDS011;35382;51.484;11.476;2022-07-29T10:08:01;9.80;;;7.30;;
49488;SDS011;35382;51.484;11.476;2022-07-29T10:09:49;10.30;;;7.75;;
49488;SDS011;35382;51.484;11.476;2022-07-29T10:11:33;12.98;;;7.88;;
49488;SDS011;35382;51.484;11.476;2022-07-29T10:13:14;10.02;;;7.47;;
49488;SDS011;35382;51.484;11.476;2022-07-29T10:14:56;8.45;;;6.78;;
49488;SDS011;35382;51.484;11.476;2022-07-29T10:16:37;10.48;;;7.10;;
49488;SDS011;35382;51.484;11.476;2022-07-29T10:18:19;13.43;;;7.65;;
49488;SDS011;35382;51.484;11.476;2022-07-29T10:20:00;9.10;;;6.90;;
49488;SDS011;35382;51.484;11.476;2022-07-29T10:21:41;9.82;;;7.57;;